sensor_id;sensor_type;location;lat;lon;timestamp;P1;durP1;ratioP1;P2;durP2;ratioP2
65656;SDS011;57397;50.096;14.404;2023-07-13T00:00:53;3.83;;;3.42;;
65656;SDS011;57397;50.096;14.404;2023-07-13T00:03:18;3.45;;;3.10;;
65656;SDS011;57397;50.096;14.404;2023-07-13T00:05:44;3.67;;;3.20;;
65656;SDS011;57397;50.096;14.404;2023-07-13T00:08:09;3.80;;;3.25;;
65656;SDS011;57397;50.096;14.404;2023-07-13T00:10:42;3.33;;;2.97;;
65656;SDS011;57397;50.096;14.404;2023-07-13T00:13:09;3.50;;;3.20;;
65656;SDS011;57397;50.096;14.404;2023-07-13T00:15:35;4.30;;;3.55;;
65656;SDS011;57397;50.096;14.404;2023-07-13T00:18:01;3.40;;;3.00;;
65656;SDS011;57397;50.096;14.404;2023-07-13T00:20:27;3.90;;;3.40;;
65656;SDS011;57397;50.096;14.404;2023-07-13T00:22:52;3.97;;;3.20;;
65656;SDS011;57397;50.096;14.404;2023-07-13T00:25:21;4.20;;;3.20;;
65656;SDS011;57397;50.096;14.404;2023-07-13T00:27:49;3.33;;;3.03;;
65656;SDS011;57397;50.096;14.404;2023-07-13T00:30:15;4.47;;;3.15;;
65656;SDS011;57397;50.096;14.404;2023-07-13T00:32:41;4.10;;;3.38;;
65656;SDS011;57397;50.096;14.404;2023-07-13T00:35:06;4.88;;;3.05;;
65656;SDS011;57397;50.096;14.404;2023-07-13T00:37:32;3.30;;;3.00;;
65656;SDS011;57397;50.096;14.404;2023-07-13T00:40:00;3.30;;;3.00;;
65656;SDS011;57397;50.096;14.404;2023-07-13T00:42:27;3.20;;;2.90;;
65656;SDS011;57397;50.096;14.404;2023-07-13T00:47:45;3.63;;;3.05;;
65656;SDS011;57397;50.096;14.404;2023-07-13T00:50:12;3.47;;;2.90;;
65656;SDS011;57397;50.096;14.404;2023-07-13T00:52:40;3.92;;;2.92;;
65656;SDS011;57397;50.096;14.404;2023-07-13T00:55:09;3.88;;;3.22;;
65656;SDS011;57397;50.096;14.404;2023-07-13T00:57:36;3.25;;;2.95;;
65656;SDS011;57397;50.096;14.404;2023-07-13T01:00:02;3.50;;;3.13;;
65656;SDS011;57397;50.096;14.404;2023-07-13T01:02:35;3.17;;;2.88;;
65656;SDS011;57397;50.096;14.404;2023-07-13T01:05:08;3.15;;;2.85;;
65656;SDS011;57397;50.096;14.404;2023-07-13T01:07:42;3.60;;;3.08;;
65656;SDS011;57397;50.096;14.404;2023-07-13T01:10:09;3.55;;;3.22;;
65656;SDS011;57397;50.096;14.404;2023-07-13T01:12:35;3.38;;;2.97;;
65656;SDS011;57397;50.096;14.404;2023-07-13T01:15:02;3.20;;;2.90;;
65656;SDS011;57397;50.096;14.404;2023-07-13T01:17:28;3.50;;;3.10;;
65656;SDS011;57397;50.096;14.404;2023-07-13T01:19:54;3.53;;;3.13;;
65656;SDS011;57397;50.096;14.404;2023-07-13T01:22:20;3.20;;;2.90;;
65656;SDS011;57397;50.096;14.404;2023-07-13T01:24:50;3.40;;;2.88;;
65656;SDS011;57397;50.096;14.404;2023-07-13T01:27:17;3.65;;;2.72;;
65656;SDS011;57397;50.096;14.404;2023-07-13T01:29:46;4.00;;;2.70;;
65656;SDS011;57397;50.096;14.404;2023-07-13T01:32:17;3.28;;;2.97;;
65656;SDS011;57397;50.096;14.404;2023-07-13T01:34:52;3.20;;;2.85;;
65656;SDS011;57397;50.096;14.404;2023-07-13T01:37:19;3.53;;;3.00;;
65656;SDS011;57397;50.096;14.404;2023-07-13T01:39:45;3.22;;;2.88;;
65656;SDS011;57397;50.096;14.404;2023-07-13T01:42:12;3.40;;;2.80;;
65656;SDS011;57397;50.096;14.404;2023-07-13T01:44:38;3.40;;;3.03;;
65656;SDS011;57397;50.096;14.404;2023-07-13T01:47:03;3.22;;;2.92;;
65656;SDS011;57397;50.096;14.404;2023-07-13T01:49:30;3.70;;;2.65;;
65656;SDS011;57397;50.096;14.404;2023-07-13T01:51:55;4.22;;;2.85;;
65656;SDS011;57397;50.096;14.404;2023-07-13T01:54:21;3.38;;;2.97;;
65656;SDS011;57397;50.096;14.404;2023-07-13T01:56:46;3.97;;;3.10;;
65656;SDS011;57397;50.096;14.404;2023-07-13T01:59:12;3.10;;;2.80;;
65656;SDS011;57397;50.096;14.404;2023-07-13T02:01:37;3.72;;;2.80;;
65656;SDS011;57397;50.096;14.404;2023-07-13T02:04:03;3.28;;;2.83;;
65656;SDS011;57397;50.096;14.404;2023-07-13T02:06:28;4.20;;;2.90;;
65656;SDS011;57397;50.096;14.404;2023-07-13T02:08:54;3.40;;;2.80;;
65656;SDS011;57397;50.096;14.404;2023-07-13T02:11:20;3.40;;;2.88;;
65656;SDS011;57397;50.096;14.404;2023-07-13T02:13:45;3.10;;;2.80;;
65656;SDS011;57397;50.096;14.404;2023-07-13T02:16:11;3.35;;;2.80;;
65656;SDS011;57397;50.096;14.404;2023-07-13T02:18:36;3.40;;;2.85;;
65656;SDS011;57397;50.096;14.404;2023-07-13T02:21:02;3.40;;;2.90;;
65656;SDS011;57397;50.096;14.404;2023-07-13T02:23:28;4.25;;;2.90;;
65656;SDS011;57397;50.096;14.404;2023-07-13T02:25:55;3.45;;;2.72;;
65656;SDS011;57397;50.096;14.404;2023-07-13T02:28:21;3.25;;;2.70;;
65656;SDS011;57397;50.096;14.404;2023-07-13T02:30:46;3.35;;;3.05;;
65656;SDS011;57397;50.096;14.404;2023-07-13T02:33:12;3.67;;;2.80;;
65656;SDS011;57397;50.096;14.404;2023-07-13T02:35:37;2.97;;;2.67;;
65656;SDS011;57397;50.096;14.404;2023-07-13T02:38:03;3.17;;;2.50;;
65656;SDS011;57397;50.096;14.404;2023-07-13T02:40:29;2.97;;;2.45;;
65656;SDS011;57397;50.096;14.404;2023-07-13T02:42:54;3.53;;;2.65;;
65656;SDS011;57397;50.096;14.404;2023-07-13T02:45:23;3.35;;;2.78;;
65656;SDS011;57397;50.096;14.404;2023-07-13T02:47:51;3.65;;;2.70;;
65656;SDS011;57397;50.096;14.404;2023-07-13T02:50:18;3.45;;;2.80;;
65656;SDS011;57397;50.096;14.404;2023-07-13T02:52:44;3.10;;;2.80;;
65656;SDS011;57397;50.096;14.404;2023-07-13T02:55:09;3.58;;;2.97;;
65656;SDS011;57397;50.096;14.404;2023-07-13T02:57:35;3.72;;;2.70;;
65656;SDS011;57397;50.096;14.404;2023-07-13T03:00:01;3.30;;;3.00;;
65656;SDS011;57397;50.096;14.404;2023-07-13T03:02:30;3.63;;;2.85;;
65656;SDS011;57397;50.096;14.404;2023-07-13T03:04:57;3.80;;;2.80;;
65656;SDS011;57397;50.096;14.404;2023-07-13T03:07:23;3.78;;;2.63;;
65656;SDS011;57397;50.096;14.404;2023-07-13T03:09:53;3.30;;;2.85;;
65656;SDS011;57397;50.096;14.404;2023-07-13T03:12:22;2.83;;;2.50;;
65656;SDS011;57397;50.096;14.404;2023-07-13T03:14:48;3.08;;;2.72;;
65656;SDS011;57397;50.096;14.404;2023-07-13T03:17:14;3.10;;;2.80;;
65656;SDS011;57397;50.096;14.404;2023-07-13T03:19:39;3.00;;;2.70;;
65656;SDS011;57397;50.096;14.404;2023-07-13T03:22:05;3.58;;;2.80;;
65656;SDS011;57397;50.096;14.404;2023-07-13T03:24:32;3.35;;;2.58;;
65656;SDS011;57397;50.096;14.404;2023-07-13T03:26:58;3.28;;;2.95;;
65656;SDS011;57397;50.096;14.404;2023-07-13T03:29:23;3.47;;;3.00;;
65656;SDS011;57397;50.096;14.404;2023-07-13T03:31:49;2.90;;;2.55;;
65656;SDS011;57397;50.096;14.404;2023-07-13T03:34:14;4.15;;;2.90;;
65656;SDS011;57397;50.096;14.404;2023-07-13T03:36:40;3.22;;;2.88;;
65656;SDS011;57397;50.096;14.404;2023-07-13T03:39:05;3.05;;;2.60;;
65656;SDS011;57397;50.096;14.404;2023-07-13T03:41:33;3.28;;;2.80;;
65656;SDS011;57397;50.096;14.404;2023-07-13T03:43:59;3.35;;;2.70;;
65656;SDS011;57397;50.096;14.404;2023-07-13T03:46:24;3.33;;;2.83;;
65656;SDS011;57397;50.096;14.404;2023-07-13T03:48:50;3.05;;;2.70;;
65656;SDS011;57397;50.096;14.404;2023-07-13T03:51:16;3.20;;;2.90;;
65656;SDS011;57397;50.096;14.404;2023-07-13T03:53:42;3.42;;;3.05;;
65656;SDS011;57397;50.096;14.404;2023-07-13T03:56:09;3.30;;;3.00;;
65656;SDS011;57397;50.096;14.404;2023-07-13T03:58:36;4.25;;;2.97;;
65656;SDS011;57397;50.096;14.404;2023-07-13T04:01:03;3.38;;;2.88;;
65656;SDS011;57397;50.096;14.404;2023-07-13T04:03:30;3.60;;;2.70;;
65656;SDS011;57397;50.096;14.404;2023-07-13T04:05:58;3.67;;;2.97;;
65656;SDS011;57397;50.096;14.404;2023-07-13T04:08:25;3.75;;;2.83;;
65656;SDS011;57397;50.096;14.404;2023-07-13T04:10:52;4.65;;;3.10;;
65656;SDS011;57397;50.096;14.404;2023-07-13T04:13:17;3.47;;;3.10;;
65656;SDS011;57397;50.096;14.404;2023-07-13T04:15:43;3.40;;;3.00;;
65656;SDS011;57397;50.096;14.404;2023-07-13T04:18:08;4.00;;;3.00;;
65656;SDS011;57397;50.096;14.404;2023-07-13T04:20:34;4.00;;;2.92;;
65656;SDS011;57397;50.096;14.404;2023-07-13T04:22:59;3.17;;;2.88;;
65656;SDS011;57397;50.096;14.404;2023-07-13T04:25:25;3.17;;;2.85;;
65656;SDS011;57397;50.096;14.404;2023-07-13T04:27:52;3.90;;;3.00;;
65656;SDS011;57397;50.096;14.404;2023-07-13T04:30:17;3.25;;;2.75;;
65656;SDS011;57397;50.096;14.404;2023-07-13T04:32:43;3.75;;;2.60;;
65656;SDS011;57397;50.096;14.404;2023-07-13T04:35:08;3.78;;;2.90;;
65656;SDS011;57397;50.096;14.404;2023-07-13T04:37:34;3.88;;;2.78;;
65656;SDS011;57397;50.096;14.404;2023-07-13T04:40:00;3.42;;;2.97;;
65656;SDS011;57397;50.096;14.404;2023-07-13T04:42:26;3.45;;;2.97;;
65656;SDS011;57397;50.096;14.404;2023-07-13T04:44:52;3.35;;;2.85;;
65656;SDS011;57397;50.096;14.404;2023-07-13T04:47:17;3.85;;;2.75;;
65656;SDS011;57397;50.096;14.404;2023-07-13T04:49:44;3.70;;;2.70;;
65656;SDS011;57397;50.096;14.404;2023-07-13T04:52:10;2.78;;;2.47;;
65656;SDS011;57397;50.096;14.404;2023-07-13T04:54:36;3.90;;;2.58;;
65656;SDS011;57397;50.096;14.404;2023-07-13T04:57:02;2.97;;;2.67;;
65656;SDS011;57397;50.096;14.404;2023-07-13T04:59:29;3.50;;;2.75;;
65656;SDS011;57397;50.096;14.404;2023-07-13T05:01:55;3.00;;;2.53;;
65656;SDS011;57397;50.096;14.404;2023-07-13T05:04:20;3.85;;;2.65;;
65656;SDS011;57397;50.096;14.404;2023-07-13T05:06:46;3.42;;;2.83;;
65656;SDS011;57397;50.096;14.404;2023-07-13T05:09:11;4.68;;;2.97;;
65656;SDS011;57397;50.096;14.404;2023-07-13T05:11:37;2.58;;;2.38;;
65656;SDS011;57397;50.096;14.404;2023-07-13T05:14:03;3.38;;;2.80;;
65656;SDS011;57397;50.096;14.404;2023-07-13T05:16:28;2.80;;;2.55;;
65656;SDS011;57397;50.096;14.404;2023-07-13T05:18:54;3.15;;;2.85;;
65656;SDS011;57397;50.096;14.404;2023-07-13T05:21:19;3.10;;;2.67;;
65656;SDS011;57397;50.096;14.404;2023-07-13T05:23:45;3.05;;;2.60;;
65656;SDS011;57397;50.096;14.404;2023-07-13T05:26:11;2.92;;;2.58;;
65656;SDS011;57397;50.096;14.404;2023-07-13T05:28:37;3.05;;;2.50;;
65656;SDS011;57397;50.096;14.404;2023-07-13T05:31:03;3.88;;;2.65;;
65656;SDS011;57397;50.096;14.404;2023-07-13T05:33:29;4.05;;;2.63;;
65656;SDS011;57397;50.096;14.404;2023-07-13T05:35:55;3.20;;;2.72;;
65656;SDS011;57397;50.096;14.404;2023-07-13T05:38:21;3.17;;;2.72;;
65656;SDS011;57397;50.096;14.404;2023-07-13T05:40:46;3.80;;;2.40;;
65656;SDS011;57397;50.096;14.404;2023-07-13T05:43:14;3.08;;;2.38;;
65656;SDS011;57397;50.096;14.404;2023-07-13T05:45:39;3.20;;;2.60;;
65656;SDS011;57397;50.096;14.404;2023-07-13T05:48:05;3.00;;;2.63;;
65656;SDS011;57397;50.096;14.404;2023-07-13T05:50:31;3.47;;;2.47;;
65656;SDS011;57397;50.096;14.404;2023-07-13T05:52:56;3.47;;;2.83;;
65656;SDS011;57397;50.096;14.404;2023-07-13T05:55:22;3.58;;;2.80;;
65656;SDS011;57397;50.096;14.404;2023-07-13T05:57:48;2.80;;;2.50;;
65656;SDS011;57397;50.096;14.404;2023-07-13T06:00:13;3.00;;;2.70;;
65656;SDS011;57397;50.096;14.404;2023-07-13T06:02:40;3.78;;;2.70;;
65656;SDS011;57397;50.096;14.404;2023-07-13T06:05:05;3.28;;;2.55;;
65656;SDS011;57397;50.096;14.404;2023-07-13T06:07:31;2.95;;;2.50;;
65656;SDS011;57397;50.096;14.404;2023-07-13T06:09:57;4.05;;;2.50;;
65656;SDS011;57397;50.096;14.404;2023-07-13T06:12:24;2.60;;;2.38;;
65656;SDS011;57397;50.096;14.404;2023-07-13T06:14:53;2.78;;;2.47;;
65656;SDS011;57397;50.096;14.404;2023-07-13T06:17:18;3.15;;;2.83;;
65656;SDS011;57397;50.096;14.404;2023-07-13T06:19:44;2.92;;;2.50;;
65656;SDS011;57397;50.096;14.404;2023-07-13T06:22:09;3.05;;;2.45;;
65656;SDS011;57397;50.096;14.404;2023-07-13T06:24:35;2.67;;;2.30;;
65656;SDS011;57397;50.096;14.404;2023-07-13T06:27:01;2.67;;;2.45;;
65656;SDS011;57397;50.096;14.404;2023-07-13T06:29:26;2.70;;;2.17;;
65656;SDS011;57397;50.096;14.404;2023-07-13T06:31:52;2.38;;;2.17;;
65656;SDS011;57397;50.096;14.404;2023-07-13T06:34:17;3.03;;;2.50;;
65656;SDS011;57397;50.096;14.404;2023-07-13T06:36:43;2.38;;;2.17;;
65656;SDS011;57397;50.096;14.404;2023-07-13T06:39:09;2.67;;;2.20;;
65656;SDS011;57397;50.096;14.404;2023-07-13T06:41:38;2.63;;;2.28;;
65656;SDS011;57397;50.096;14.404;2023-07-13T06:44:04;2.83;;;2.35;;
65656;SDS011;57397;50.096;14.404;2023-07-13T06:46:29;3.78;;;2.30;;
65656;SDS011;57397;50.096;14.404;2023-07-13T06:48:55;2.65;;;2.30;;
65656;SDS011;57397;50.096;14.404;2023-07-13T06:51:21;2.80;;;2.17;;
65656;SDS011;57397;50.096;14.404;2023-07-13T06:53:47;2.50;;;2.13;;
65656;SDS011;57397;50.096;14.404;2023-07-13T06:56:12;2.42;;;2.17;;
65656;SDS011;57397;50.096;14.404;2023-07-13T06:58:38;2.55;;;2.10;;
65656;SDS011;57397;50.096;14.404;2023-07-13T07:01:04;2.80;;;2.30;;
65656;SDS011;57397;50.096;14.404;2023-07-13T07:03:30;3.75;;;2.30;;
65656;SDS011;57397;50.096;14.404;2023-07-13T07:06:03;2.70;;;2.10;;
65656;SDS011;57397;50.096;14.404;2023-07-13T07:08:36;3.45;;;2.40;;
65656;SDS011;57397;50.096;14.404;2023-07-13T07:11:01;2.85;;;2.30;;
65656;SDS011;57397;50.096;14.404;2023-07-13T07:13:27;2.45;;;2.15;;
65656;SDS011;57397;50.096;14.404;2023-07-13T07:15:53;2.50;;;2.30;;
65656;SDS011;57397;50.096;14.404;2023-07-13T07:18:22;2.53;;;2.10;;
65656;SDS011;57397;50.096;14.404;2023-07-13T07:20:48;2.80;;;2.30;;
65656;SDS011;57397;50.096;14.404;2023-07-13T07:23:14;2.67;;;2.00;;
65656;SDS011;57397;50.096;14.404;2023-07-13T07:25:42;2.25;;;1.95;;
65656;SDS011;57397;50.096;14.404;2023-07-13T07:28:08;2.90;;;2.17;;
65656;SDS011;57397;50.096;14.404;2023-07-13T07:30:34;3.42;;;2.00;;
65656;SDS011;57397;50.096;14.404;2023-07-13T07:33:00;2.80;;;2.25;;
65656;SDS011;57397;50.096;14.404;2023-07-13T07:35:26;2.47;;;2.17;;
65656;SDS011;57397;50.096;14.404;2023-07-13T07:37:52;2.30;;;2.03;;
65656;SDS011;57397;50.096;14.404;2023-07-13T07:40:18;3.55;;;2.20;;
65656;SDS011;57397;50.096;14.404;2023-07-13T07:42:44;2.30;;;2.10;;
65656;SDS011;57397;50.096;14.404;2023-07-13T07:45:09;3.08;;;2.03;;
65656;SDS011;57397;50.096;14.404;2023-07-13T07:47:36;3.15;;;2.00;;
65656;SDS011;57397;50.096;14.404;2023-07-13T07:50:02;2.70;;;2.30;;
65656;SDS011;57397;50.096;14.404;2023-07-13T07:52:28;2.47;;;2.13;;
65656;SDS011;57397;50.096;14.404;2023-07-13T07:54:54;2.38;;;2.17;;
65656;SDS011;57397;50.096;14.404;2023-07-13T07:57:20;2.58;;;1.90;;
65656;SDS011;57397;50.096;14.404;2023-07-13T07:59:45;2.05;;;1.85;;
65656;SDS011;57397;50.096;14.404;2023-07-13T08:02:11;3.13;;;2.20;;
65656;SDS011;57397;50.096;14.404;2023-07-13T08:04:36;2.35;;;1.90;;
65656;SDS011;57397;50.096;14.404;2023-07-13T08:07:02;2.22;;;2.03;;
65656;SDS011;57397;50.096;14.404;2023-07-13T08:09:28;3.50;;;2.00;;
65656;SDS011;57397;50.096;14.404;2023-07-13T08:11:54;2.45;;;1.90;;
65656;SDS011;57397;50.096;14.404;2023-07-13T08:14:19;2.72;;;1.98;;
65656;SDS011;57397;50.096;14.404;2023-07-13T08:16:45;2.95;;;2.00;;
65656;SDS011;57397;50.096;14.404;2023-07-13T08:19:11;2.33;;;2.10;;
65656;SDS011;57397;50.096;14.404;2023-07-13T08:21:37;1.92;;;1.73;;
65656;SDS011;57397;50.096;14.404;2023-07-13T08:24:02;2.30;;;2.10;;
65656;SDS011;57397;50.096;14.404;2023-07-13T08:26:28;2.53;;;2.15;;
65656;SDS011;57397;50.096;14.404;2023-07-13T08:28:54;2.50;;;1.92;;
65656;SDS011;57397;50.096;14.404;2023-07-13T08:31:19;2.28;;;2.08;;
65656;SDS011;57397;50.096;14.404;2023-07-13T08:33:45;2.22;;;2.00;;
65656;SDS011;57397;50.096;14.404;2023-07-13T08:36:11;2.60;;;1.95;;
65656;SDS011;57397;50.096;14.404;2023-07-13T08:38:36;2.25;;;2.05;;
65656;SDS011;57397;50.096;14.404;2023-07-13T08:41:03;2.95;;;2.08;;
65656;SDS011;57397;50.096;14.404;2023-07-13T08:43:36;2.55;;;1.90;;
65656;SDS011;57397;50.096;14.404;2023-07-13T08:46:19;2.13;;;1.92;;
65656;SDS011;57397;50.096;14.404;2023-07-13T08:48:48;1.90;;;1.70;;
65656;SDS011;57397;50.096;14.404;2023-07-13T08:53:54;2.10;;;1.90;;
65656;SDS011;57397;50.096;14.404;2023-07-13T08:56:25;2.10;;;1.80;;
65656;SDS011;57397;50.096;14.404;2023-07-13T08:58:54;2.78;;;2.10;;
65656;SDS011;57397;50.096;14.404;2023-07-13T09:01:30;2.22;;;1.95;;
65656;SDS011;57397;50.096;14.404;2023-07-13T09:04:03;2.05;;;1.85;;
65656;SDS011;57397;50.096;14.404;2023-07-13T09:06:34;2.25;;;1.90;;
65656;SDS011;57397;50.096;14.404;2023-07-13T09:17:13;2.15;;;1.85;;
65656;SDS011;57397;50.096;14.404;2023-07-13T09:19:42;1.95;;;1.73;;
65656;SDS011;57397;50.096;14.404;2023-07-13T09:22:10;3.25;;;1.88;;
65656;SDS011;57397;50.096;14.404;2023-07-13T09:24:44;2.30;;;2.10;;
65656;SDS011;57397;50.096;14.404;2023-07-13T09:27:13;2.25;;;1.95;;
65656;SDS011;57397;50.096;14.404;2023-07-13T09:29:44;2.10;;;1.90;;
65656;SDS011;57397;50.096;14.404;2023-07-13T09:32:12;2.22;;;1.92;;
65656;SDS011;57397;50.096;14.404;2023-07-13T09:34:40;2.17;;;1.88;;
65656;SDS011;57397;50.096;14.404;2023-07-13T09:37:05;2.15;;;1.90;;
65656;SDS011;57397;50.096;14.404;2023-07-13T09:39:39;2.40;;;1.98;;
65656;SDS011;57397;50.096;14.404;2023-07-13T09:42:16;2.40;;;1.70;;
65656;SDS011;57397;50.096;14.404;2023-07-13T09:44:50;1.90;;;1.70;;
65656;SDS011;57397;50.096;14.404;2023-07-13T09:47:21;3.10;;;1.97;;
65656;SDS011;57397;50.096;14.404;2023-07-13T09:49:53;2.33;;;1.98;;
65656;SDS011;57397;50.096;14.404;2023-07-13T09:52:20;1.85;;;1.67;;
65656;SDS011;57397;50.096;14.404;2023-07-13T09:54:51;2.10;;;1.75;;
65656;SDS011;57397;50.096;14.404;2023-07-13T09:57:24;3.00;;;1.98;;
65656;SDS011;57397;50.096;14.404;2023-07-13T09:59:51;2.88;;;1.95;;
65656;SDS011;57397;50.096;14.404;2023-07-13T10:02:34;2.10;;;1.83;;
65656;SDS011;57397;50.096;14.404;2023-07-13T10:07:30;2.13;;;1.90;;
65656;SDS011;57397;50.096;14.404;2023-07-13T10:09:58;1.80;;;1.70;;
65656;SDS011;57397;50.096;14.404;2023-07-13T10:12:28;2.10;;;1.70;;
65656;SDS011;57397;50.096;14.404;2023-07-13T10:14:56;1.77;;;1.60;;
65656;SDS011;57397;50.096;14.404;2023-07-13T10:17:26;1.95;;;1.60;;
65656;SDS011;57397;50.096;14.404;2023-07-13T10:20:03;2.03;;;1.83;;
65656;SDS011;57397;50.096;14.404;2023-07-13T10:27:52;2.00;;;1.80;;
65656;SDS011;57397;50.096;14.404;2023-07-13T10:30:21;1.50;;;1.40;;
65656;SDS011;57397;50.096;14.404;2023-07-13T10:32:50;1.80;;;1.60;;
65656;SDS011;57397;50.096;14.404;2023-07-13T10:35:18;2.20;;;1.65;;
65656;SDS011;57397;50.096;14.404;2023-07-13T10:37:54;2.28;;;1.90;;
65656;SDS011;57397;50.096;14.404;2023-07-13T10:40:25;2.25;;;1.60;;
65656;SDS011;57397;50.096;14.404;2023-07-13T10:42:54;1.80;;;1.60;;
65656;SDS011;57397;50.096;14.404;2023-07-13T10:45:22;1.95;;;1.70;;
65656;SDS011;57397;50.096;14.404;2023-07-13T10:47:49;2.00;;;1.80;;
65656;SDS011;57397;50.096;14.404;2023-07-13T10:50:22;1.98;;;1.77;;
65656;SDS011;57397;50.096;14.404;2023-07-13T10:52:53;2.10;;;1.60;;
65656;SDS011;57397;50.096;14.404;2023-07-13T10:58:31;2.03;;;1.60;;
65656;SDS011;57397;50.096;14.404;2023-07-13T11:03:26;1.90;;;1.70;;
65656;SDS011;57397;50.096;14.404;2023-07-13T11:06:03;1.88;;;1.50;;
65656;SDS011;57397;50.096;14.404;2023-07-13T11:08:38;1.73;;;1.63;;
65656;SDS011;57397;50.096;14.404;2023-07-13T11:18:52;1.63;;;1.52;;
65656;SDS011;57397;50.096;14.404;2023-07-13T11:21:32;1.98;;;1.63;;
65656;SDS011;57397;50.096;14.404;2023-07-13T11:24:14;1.98;;;1.50;;
65656;SDS011;57397;50.096;14.404;2023-07-13T11:26:42;1.50;;;1.40;;
65656;SDS011;57397;50.096;14.404;2023-07-13T11:31:42;1.85;;;1.60;;
65656;SDS011;57397;50.096;14.404;2023-07-13T11:34:12;2.10;;;1.60;;
65656;SDS011;57397;50.096;14.404;2023-07-13T11:36:39;2.05;;;1.75;;
65656;SDS011;57397;50.096;14.404;2023-07-13T11:41:59;2.10;;;1.80;;
65656;SDS011;57397;50.096;14.404;2023-07-13T11:44:26;1.70;;;1.50;;
65656;SDS011;57397;50.096;14.404;2023-07-13T11:46:57;1.50;;;1.40;;
65656;SDS011;57397;50.096;14.404;2023-07-13T11:49:30;2.25;;;1.77;;
65656;SDS011;57397;50.096;14.404;2023-07-13T11:51:57;1.60;;;1.42;;
65656;SDS011;57397;50.096;14.404;2023-07-13T11:56:48;1.92;;;1.60;;
65656;SDS011;57397;50.096;14.404;2023-07-13T11:59:14;1.98;;;1.58;;
65656;SDS011;57397;50.096;14.404;2023-07-13T12:01:44;1.58;;;1.40;;
65656;SDS011;57397;50.096;14.404;2023-07-13T12:07:15;2.45;;;1.50;;
65656;SDS011;57397;50.096;14.404;2023-07-13T12:09:42;2.10;;;1.55;;
65656;SDS011;57397;50.096;14.404;2023-07-13T12:12:12;2.08;;;1.50;;
65656;SDS011;57397;50.096;14.404;2023-07-13T12:14:39;2.00;;;1.50;;
65656;SDS011;57397;50.096;14.404;2023-07-13T12:17:23;1.60;;;1.35;;
65656;SDS011;57397;50.096;14.404;2023-07-13T12:19:50;1.88;;;1.50;;
65656;SDS011;57397;50.096;14.404;2023-07-13T12:22:17;1.70;;;1.50;;
65656;SDS011;57397;50.096;14.404;2023-07-13T12:24:45;2.25;;;1.40;;
65656;SDS011;57397;50.096;14.404;2023-07-13T12:27:26;1.55;;;1.30;;
65656;SDS011;57397;50.096;14.404;2023-07-13T12:29:56;1.83;;;1.70;;
65656;SDS011;57397;50.096;14.404;2023-07-13T12:32:26;1.73;;;1.42;;
65656;SDS011;57397;50.096;14.404;2023-07-13T12:34:53;1.73;;;1.55;;
65656;SDS011;57397;50.096;14.404;2023-07-13T12:37:20;1.40;;;1.30;;
65656;SDS011;57397;50.096;14.404;2023-07-13T12:39:47;1.77;;;1.45;;
65656;SDS011;57397;50.096;14.404;2023-07-13T12:42:17;1.52;;;1.30;;
65656;SDS011;57397;50.096;14.404;2023-07-13T12:44:57;1.45;;;1.30;;
65656;SDS011;57397;50.096;14.404;2023-07-13T12:47:25;1.40;;;1.30;;
65656;SDS011;57397;50.096;14.404;2023-07-13T12:49:56;1.50;;;1.30;;
65656;SDS011;57397;50.096;14.404;2023-07-13T12:52:27;1.55;;;1.27;;
65656;SDS011;57397;50.096;14.404;2023-07-13T12:54:58;1.98;;;1.30;;
65656;SDS011;57397;50.096;14.404;2023-07-13T12:57:29;2.08;;;1.48;;
65656;SDS011;57397;50.096;14.404;2023-07-13T12:59:54;1.52;;;1.42;;
65656;SDS011;57397;50.096;14.404;2023-07-13T13:02:30;1.80;;;1.50;;
65656;SDS011;57397;50.096;14.404;2023-07-13T13:04:58;1.50;;;1.20;;
65656;SDS011;57397;50.096;14.404;2023-07-13T13:07:24;1.30;;;1.20;;
65656;SDS011;57397;50.096;14.404;2023-07-13T13:09:50;1.50;;;1.27;;
65656;SDS011;57397;50.096;14.404;2023-07-13T13:12:16;1.75;;;1.40;;
65656;SDS011;57397;50.096;14.404;2023-07-13T13:14:42;1.65;;;1.40;;
65656;SDS011;57397;50.096;14.404;2023-07-13T13:17:22;1.92;;;1.27;;
65656;SDS011;57397;50.096;14.404;2023-07-13T13:19:52;1.60;;;1.38;;
65656;SDS011;57397;50.096;14.404;2023-07-13T13:22:19;1.30;;;1.20;;
65656;SDS011;57397;50.096;14.404;2023-07-13T13:24:45;2.20;;;1.40;;
65656;SDS011;57397;50.096;14.404;2023-07-13T13:27:18;1.77;;;1.35;;
65656;SDS011;57397;50.096;14.404;2023-07-13T13:29:46;2.08;;;1.40;;
65656;SDS011;57397;50.096;14.404;2023-07-13T13:32:15;2.45;;;1.35;;
65656;SDS011;57397;50.096;14.404;2023-07-13T13:34:41;1.80;;;1.40;;
65656;SDS011;57397;50.096;14.404;2023-07-13T13:37:25;1.75;;;1.38;;
65656;SDS011;57397;50.096;14.404;2023-07-13T13:39:51;1.40;;;1.30;;
65656;SDS011;57397;50.096;14.404;2023-07-13T13:42:18;1.75;;;1.27;;
65656;SDS011;57397;50.096;14.404;2023-07-13T13:44:46;1.33;;;1.23;;
65656;SDS011;57397;50.096;14.404;2023-07-13T13:47:24;1.30;;;1.20;;
65656;SDS011;57397;50.096;14.404;2023-07-13T13:49:54;1.50;;;1.30;;
65656;SDS011;57397;50.096;14.404;2023-07-13T13:52:20;1.85;;;1.15;;
65656;SDS011;57397;50.096;14.404;2023-07-13T13:54:46;1.48;;;1.38;;
65656;SDS011;57397;50.096;14.404;2023-07-13T13:57:11;1.52;;;1.27;;
65656;SDS011;57397;50.096;14.404;2023-07-13T13:59:37;1.55;;;1.30;;
65656;SDS011;57397;50.096;14.404;2023-07-13T14:02:11;1.30;;;1.20;;
65656;SDS011;57397;50.096;14.404;2023-07-13T14:04:56;1.30;;;1.20;;
65656;SDS011;57397;50.096;14.404;2023-07-13T14:07:24;1.52;;;1.20;;
65656;SDS011;57397;50.096;14.404;2023-07-13T14:09:51;1.35;;;1.25;;
65656;SDS011;57397;50.096;14.404;2023-07-13T14:12:17;1.30;;;1.20;;
65656;SDS011;57397;50.096;14.404;2023-07-13T14:14:43;1.20;;;1.10;;
65656;SDS011;57397;50.096;14.404;2023-07-13T14:17:13;2.05;;;1.30;;
65656;SDS011;57397;50.096;14.404;2023-07-13T14:19:46;1.40;;;1.30;;
65656;SDS011;57397;50.096;14.404;2023-07-13T14:22:16;1.40;;;1.30;;
65656;SDS011;57397;50.096;14.404;2023-07-13T14:24:42;1.40;;;1.30;;
65656;SDS011;57397;50.096;14.404;2023-07-13T14:27:09;1.58;;;1.20;;
65656;SDS011;57397;50.096;14.404;2023-07-13T14:29:35;1.58;;;1.45;;
65656;SDS011;57397;50.096;14.404;2023-07-13T14:32:01;1.30;;;1.20;;
65656;SDS011;57397;50.096;14.404;2023-07-13T14:34:27;1.30;;;1.20;;
65656;SDS011;57397;50.096;14.404;2023-07-13T14:36:53;1.50;;;1.40;;
65656;SDS011;57397;50.096;14.404;2023-07-13T14:39:22;1.40;;;1.10;;
65656;SDS011;57397;50.096;14.404;2023-07-13T14:41:52;1.48;;;1.25;;
65656;SDS011;57397;50.096;14.404;2023-07-13T14:44:21;1.58;;;1.30;;
65656;SDS011;57397;50.096;14.404;2023-07-13T14:46:49;1.60;;;1.30;;
65656;SDS011;57397;50.096;14.404;2023-07-13T14:54:35;1.35;;;1.10;;
65656;SDS011;57397;50.096;14.404;2023-07-13T14:57:08;1.40;;;1.30;;
65656;SDS011;57397;50.096;14.404;2023-07-13T14:59:44;2.47;;;1.33;;
65656;SDS011;57397;50.096;14.404;2023-07-13T15:04:51;1.50;;;1.17;;
65656;SDS011;57397;50.096;14.404;2023-07-13T15:07:16;3.13;;;1.40;;
65656;SDS011;57397;50.096;14.404;2023-07-13T15:09:44;1.60;;;1.30;;
65656;SDS011;57397;50.096;14.404;2023-07-13T15:12:09;1.23;;;1.13;;
65656;SDS011;57397;50.096;14.404;2023-07-13T15:14:35;1.58;;;1.20;;
65656;SDS011;57397;50.096;14.404;2023-07-13T15:17:01;1.50;;;1.30;;
65656;SDS011;57397;50.096;14.404;2023-07-13T15:19:26;1.50;;;1.20;;
65656;SDS011;57397;50.096;14.404;2023-07-13T15:21:55;1.83;;;1.17;;
65656;SDS011;57397;50.096;14.404;2023-07-13T15:24:22;1.23;;;1.10;;
65656;SDS011;57397;50.096;14.404;2023-07-13T15:26:48;1.52;;;1.20;;
65656;SDS011;57397;50.096;14.404;2023-07-13T15:29:14;2.20;;;1.02;;